sensor_id;sensor_type;location;lat;lon;timestamp;pressure;altitude;pressure_sealevel;temperature;humidity
14790;BME280;7486;51.010;10.366;2022-12-17T00:00:51;98742.66;;;-5.31;73.45
14790;BME280;7486;51.010;10.366;2022-12-17T00:03:18;98742.97;;;-5.49;74.15
14790;BME280;7486;51.010;10.366;2022-12-17T00:05:45;98748.31;;;-5.81;75.68
14790;BME280;7486;51.010;10.366;2022-12-17T00:08:11;98696.91;;;-5.84;74.63
14790;BME280;7486;51.010;10.366;2022-12-17T00:10:38;98749.69;;;-5.47;74.11
14790;BME280;7486;51.010;10.366;2022-12-17T00:13:05;98754.69;;;-5.44;74.44
14790;BME280;7486;51.010;10.366;2022-12-17T00:15:32;98765.63;;;-5.26;74.15
14790;BME280;7486;51.010;10.366;2022-12-17T00:18:04;98725.75;;;-5.35;73.43
14790;BME280;7486;51.010;10.366;2022-12-17T00:20:31;98771.00;;;-5.58;74.42
14790;BME280;7486;51.010;10.366;2022-12-17T00:23:02;98764.34;;;-5.33;74.15
14790;BME280;7486;51.010;10.366;2022-12-17T00:25:29;98763.44;;;-5.32;73.66
14790;BME280;7486;51.010;10.366;2022-12-17T00:27:56;98765.81;;;-5.58;73.64
14790;BME280;7486;51.010;10.366;2022-12-17T00:30:23;98770.78;;;-5.97;75.27
14790;BME280;7486;51.010;10.366;2022-12-17T00:32:50;98776.13;;;-5.72;75.95
14790;BME280;7486;51.010;10.366;2022-12-17T00:35:17;98780.03;;;-5.51;74.22
14790;BME280;7486;51.010;10.366;2022-12-17T00:37:47;98778.19;;;-5.63;74.41
14790;BME280;7486;51.010;10.366;2022-12-17T00:40:14;98783.72;;;-5.69;74.51
14790;BME280;7486;51.010;10.366;2022-12-17T00:42:40;98789.44;;;-5.64;74.37
14790;BME280;7486;51.010;10.366;2022-12-17T00:45:07;98783.22;;;-5.75;74.13
14790;BME280;7486;51.010;10.366;2022-12-17T00:47:35;98776.66;;;-5.95;75.92
14790;BME280;7486;51.010;10.366;2022-12-17T00:50:02;98749.03;;;-5.93;74.54
14790;BME280;7486;51.010;10.366;2022-12-17T00:52:28;98776.75;;;-5.96;74.31
14790;BME280;7486;51.010;10.366;2022-12-17T00:54:55;98727.84;;;-6.42;74.72
14790;BME280;7486;51.010;10.366;2022-12-17T00:57:22;98786.16;;;-6.25;74.96
14790;BME280;7486;51.010;10.366;2022-12-17T00:59:51;98765.19;;;-6.19;74.93
14790;BME280;7486;51.010;10.366;2022-12-17T01:02:17;98796.53;;;-6.11;74.90
14790;BME280;7486;51.010;10.366;2022-12-17T01:04:44;98787.69;;;-6.07;75.25
14790;BME280;7486;51.010;10.366;2022-12-17T01:07:11;98798.31;;;-5.97;74.82
14790;BME280;7486;51.010;10.366;2022-12-17T01:09:38;98785.84;;;-6.05;75.36
14790;BME280;7486;51.010;10.366;2022-12-17T01:12:06;98799.19;;;-5.83;74.13
14790;BME280;7486;51.010;10.366;2022-12-17T01:14:34;98795.66;;;-5.82;74.43
14790;BME280;7486;51.010;10.366;2022-12-17T01:17:01;98813.72;;;-5.82;74.85
14790;BME280;7486;51.010;10.366;2022-12-17T01:19:27;98792.75;;;-5.76;74.63
14790;BME280;7486;51.010;10.366;2022-12-17T01:21:54;98811.09;;;-5.52;74.01
14790;BME280;7486;51.010;10.366;2022-12-17T01:24:22;98812.22;;;-5.56;73.34
14790;BME280;7486;51.010;10.366;2022-12-17T01:26:48;98794.78;;;-5.53;73.93
14790;BME280;7486;51.010;10.366;2022-12-17T01:29:15;98815.25;;;-5.35;73.74
14790;BME280;7486;51.010;10.366;2022-12-17T01:31:42;98760.59;;;-5.56;73.47
14790;BME280;7486;51.010;10.366;2022-12-17T01:34:09;98826.75;;;-5.41;73.27
14790;BME280;7486;51.010;10.366;2022-12-17T01:36:35;98823.38;;;-5.41;73.16
14790;BME280;7486;51.010;10.366;2022-12-17T01:39:02;98827.72;;;-5.42;73.20
14790;BME280;7486;51.010;10.366;2022-12-17T01:41:29;98821.72;;;-5.42;72.98
14790;BME280;7486;51.010;10.366;2022-12-17T01:43:56;98826.78;;;-5.55;74.09
14790;BME280;7486;51.010;10.366;2022-12-17T01:46:24;98816.50;;;-5.71;73.98
14790;BME280;7486;51.010;10.366;2022-12-17T01:48:52;98806.13;;;-5.55;73.95
14790;BME280;7486;51.010;10.366;2022-12-17T01:51:19;98824.47;;;-5.60;73.70
14790;BME280;7486;51.010;10.366;2022-12-17T01:54:06;98836.56;;;-5.46;73.41
14790;BME280;7486;51.010;10.366;2022-12-17T01:56:34;98772.63;;;-5.85;73.63
14790;BME280;7486;51.010;10.366;2022-12-17T01:59:03;98836.72;;;-5.63;73.68
14790;BME280;7486;51.010;10.366;2022-12-17T02:01:31;98818.00;;;-5.67;73.46
14790;BME280;7486;51.010;10.366;2022-12-17T02:03:58;98835.47;;;-5.72;72.66
14790;BME280;7486;51.010;10.366;2022-12-17T02:06:26;98820.06;;;-5.87;74.01
14790;BME280;7486;51.010;10.366;2022-12-17T02:14:33;98844.56;;;-5.94;75.29
14790;BME280;7486;51.010;10.366;2022-12-17T02:17:06;98841.66;;;-5.74;74.53
14790;BME280;7486;51.010;10.366;2022-12-17T02:22:55;98860.50;;;-5.88;74.30
14790;BME280;7486;51.010;10.366;2022-12-17T02:25:48;98863.31;;;-6.07;74.17
14790;BME280;7486;51.010;10.366;2022-12-17T02:28:17;98864.53;;;-5.98;74.40
14790;BME280;7486;51.010;10.366;2022-12-17T02:30:45;98849.69;;;-6.24;74.04
14790;BME280;7486;51.010;10.366;2022-12-17T02:33:12;98878.31;;;-6.29;74.45
14790;BME280;7486;51.010;10.366;2022-12-17T02:35:48;98870.72;;;-6.16;74.39
14790;BME280;7486;51.010;10.366;2022-12-17T02:38:25;98878.53;;;-6.33;74.64
14790;BME280;7486;51.010;10.366;2022-12-17T02:40:52;98873.56;;;-6.52;74.67
14790;BME280;7486;51.010;10.366;2022-12-17T02:43:24;98870.75;;;-6.47;74.90
14790;BME280;7486;51.010;10.366;2022-12-17T02:45:57;98878.91;;;-6.24;75.72
14790;BME280;7486;51.010;10.366;2022-12-17T02:48:24;98866.88;;;-6.09;74.51
14790;BME280;7486;51.010;10.366;2022-12-17T02:50:51;98876.72;;;-6.31;74.29
14790;BME280;7486;51.010;10.366;2022-12-17T02:53:19;98837.09;;;-6.76;74.40
14790;BME280;7486;51.010;10.366;2022-12-17T02:55:45;98887.88;;;-6.46;75.48
14790;BME280;7486;51.010;10.366;2022-12-17T02:58:13;98899.19;;;-6.65;76.19
14790;BME280;7486;51.010;10.366;2022-12-17T03:00:39;98890.03;;;-6.39;75.54
14790;BME280;7486;51.010;10.366;2022-12-17T03:03:07;98893.59;;;-6.73;75.39
14790;BME280;7486;51.010;10.366;2022-12-17T03:05:34;98896.75;;;-6.36;75.58
14790;BME280;7486;51.010;10.366;2022-12-17T03:08:11;98892.53;;;-6.22;75.04
14790;BME280;7486;51.010;10.366;2022-12-17T03:10:39;98893.19;;;-6.49;75.08
14790;BME280;7486;51.010;10.366;2022-12-17T03:13:06;98901.16;;;-6.70;75.03
14790;BME280;7486;51.010;10.366;2022-12-17T03:15:33;98897.19;;;-6.75;75.41
14790;BME280;7486;51.010;10.366;2022-12-17T03:17:59;98903.50;;;-6.98;76.10
14790;BME280;7486;51.010;10.366;2022-12-17T03:20:26;98898.25;;;-6.64;76.44
14790;BME280;7486;51.010;10.366;2022-12-17T03:23:03;98889.88;;;-6.51;75.77
14790;BME280;7486;51.010;10.366;2022-12-17T03:25:30;98880.72;;;-6.41;75.53
14790;BME280;7486;51.010;10.366;2022-12-17T03:28:03;98907.22;;;-6.08;74.42
14790;BME280;7486;51.010;10.366;2022-12-17T03:30:30;98905.34;;;-6.20;73.08
14790;BME280;7486;51.010;10.366;2022-12-17T03:33:01;98906.22;;;-6.37;73.56
14790;BME280;7486;51.010;10.366;2022-12-17T03:35:28;98910.84;;;-6.58;73.81
14790;BME280;7486;51.010;10.366;2022-12-17T03:37:55;98910.88;;;-6.75;74.89
14790;BME280;7486;51.010;10.366;2022-12-17T03:40:21;98918.00;;;-6.80;76.11
14790;BME280;7486;51.010;10.366;2022-12-17T03:42:48;98919.03;;;-6.67;75.35
14790;BME280;7486;51.010;10.366;2022-12-17T03:45:15;98919.91;;;-6.99;76.33
14790;BME280;7486;51.010;10.366;2022-12-17T03:47:42;98897.59;;;-7.33;77.34
14790;BME280;7486;51.010;10.366;2022-12-17T03:50:08;98919.28;;;-7.04;78.11
14790;BME280;7486;51.010;10.366;2022-12-17T03:52:35;98910.28;;;-6.80;77.95
14790;BME280;7486;51.010;10.366;2022-12-17T03:55:02;98912.13;;;-6.50;77.58
14790;BME280;7486;51.010;10.366;2022-12-17T03:57:29;98914.81;;;-6.21;77.02
14790;BME280;7486;51.010;10.366;2022-12-17T03:59:56;98914.06;;;-6.38;77.56
14790;BME280;7486;51.010;10.366;2022-12-17T04:02:22;98892.38;;;-6.34;77.26
14790;BME280;7486;51.010;10.366;2022-12-17T04:04:49;98924.81;;;-6.30;78.24
14790;BME280;7486;51.010;10.366;2022-12-17T04:07:16;98918.78;;;-6.15;77.93
14790;BME280;7486;51.010;10.366;2022-12-17T04:09:42;98915.31;;;-6.45;77.84
14790;BME280;7486;51.010;10.366;2022-12-17T04:12:09;98926.22;;;-6.25;78.21
14790;BME280;7486;51.010;10.366;2022-12-17T04:14:36;98932.59;;;-6.00;77.67
14790;BME280;7486;51.010;10.366;2022-12-17T04:17:03;98924.13;;;-6.18;77.43
14790;BME280;7486;51.010;10.366;2022-12-17T04:19:29;98933.00;;;-6.08;77.96
14790;BME280;7486;51.010;10.366;2022-12-17T04:21:56;98939.66;;;-6.20;78.35
14790;BME280;7486;51.010;10.366;2022-12-17T04:24:23;98931.44;;;-6.26;78.56
14790;BME280;7486;51.010;10.366;2022-12-17T04:26:49;98940.19;;;-6.44;78.72
14790;BME280;7486;51.010;10.366;2022-12-17T04:29:19;98940.94;;;-6.27;78.93
14790;BME280;7486;51.010;10.366;2022-12-17T04:31:46;98864.19;;;-6.53;79.26
14790;BME280;7486;51.010;10.366;2022-12-17T04:34:12;98945.63;;;-5.88;78.18
14790;BME280;7486;51.010;10.366;2022-12-17T04:36:39;98949.31;;;-6.08;77.85
14790;BME280;7486;51.010;10.366;2022-12-17T04:39:06;98948.06;;;-6.96;79.51
14790;BME280;7486;51.010;10.366;2022-12-17T04:41:33;98951.97;;;-6.56;81.14
14790;BME280;7486;51.010;10.366;2022-12-17T04:43:59;98960.19;;;-6.49;80.67
14790;BME280;7486;51.010;10.366;2022-12-17T04:46:32;98963.00;;;-6.54;80.65
14790;BME280;7486;51.010;10.366;2022-12-17T04:48:59;98965.50;;;-6.53;80.12
14790;BME280;7486;51.010;10.366;2022-12-17T04:51:26;98971.16;;;-6.46;80.05
14790;BME280;7486;51.010;10.366;2022-12-17T04:53:52;98971.34;;;-6.33;79.91
14790;BME280;7486;51.010;10.366;2022-12-17T04:56:20;98977.94;;;-6.28;79.78
14790;BME280;7486;51.010;10.366;2022-12-17T04:58:47;98971.94;;;-6.44;79.55
14790;BME280;7486;51.010;10.366;2022-12-17T05:01:13;98971.06;;;-6.60;80.18
14790;BME280;7486;51.010;10.366;2022-12-17T05:03:40;98980.31;;;-6.40;80.26
14790;BME280;7486;51.010;10.366;2022-12-17T05:06:07;98962.88;;;-6.35;80.05
14790;BME280;7486;51.010;10.366;2022-12-17T05:08:34;98973.19;;;-6.35;79.43
14790;BME280;7486;51.010;10.366;2022-12-17T05:11:07;98945.84;;;-6.71;79.46
14790;BME280;7486;51.010;10.366;2022-12-17T05:13:33;98977.34;;;-6.48;80.35
14790;BME280;7486;51.010;10.366;2022-12-17T05:16:01;98984.88;;;-6.61;79.98
14790;BME280;7486;51.010;10.366;2022-12-17T05:18:27;98978.88;;;-6.62;80.06
14790;BME280;7486;51.010;10.366;2022-12-17T05:20:54;98974.16;;;-6.54;80.64
14790;BME280;7486;51.010;10.366;2022-12-17T05:23:21;98986.69;;;-6.30;80.38
14790;BME280;7486;51.010;10.366;2022-12-17T05:25:48;98987.34;;;-6.27;80.38
14790;BME280;7486;51.010;10.366;2022-12-17T05:28:14;98995.66;;;-6.22;79.81
14790;BME280;7486;51.010;10.366;2022-12-17T05:30:41;98981.34;;;-6.12;79.54
14790;BME280;7486;51.010;10.366;2022-12-17T05:33:08;98976.13;;;-6.10;78.70
14790;BME280;7486;51.010;10.366;2022-12-17T05:35:35;98999.66;;;-6.00;79.22
14790;BME280;7486;51.010;10.366;2022-12-17T05:38:06;99004.81;;;-6.00;79.22
14790;BME280;7486;51.010;10.366;2022-12-17T05:40:34;99009.47;;;-6.07;78.17
14790;BME280;7486;51.010;10.366;2022-12-17T05:43:03;99013.47;;;-6.17;79.00
14790;BME280;7486;51.010;10.366;2022-12-17T05:45:30;99008.59;;;-6.23;79.13
14790;BME280;7486;51.010;10.366;2022-12-17T05:47:57;98993.13;;;-6.39;79.27
14790;BME280;7486;51.010;10.366;2022-12-17T05:50:26;99008.66;;;-6.40;78.92
14790;BME280;7486;51.010;10.366;2022-12-17T05:53:00;98991.22;;;-6.35;79.47
14790;BME280;7486;51.010;10.366;2022-12-17T05:55:27;99012.97;;;-6.08;79.11
14790;BME280;7486;51.010;10.366;2022-12-17T05:58:04;99012.97;;;-6.08;78.63
14790;BME280;7486;51.010;10.366;2022-12-17T06:00:32;99017.09;;;-6.06;78.51
14790;BME280;7486;51.010;10.366;2022-12-17T06:03:00;99023.69;;;-6.00;78.35
14790;BME280;7486;51.010;10.366;2022-12-17T06:05:27;98997.22;;;-6.19;77.45
14790;BME280;7486;51.010;10.366;2022-12-17T06:08:01;99018.13;;;-6.24;78.23
14790;BME280;7486;51.010;10.366;2022-12-17T06:10:28;99026.59;;;-6.06;78.11
14790;BME280;7486;51.010;10.366;2022-12-17T06:12:56;99030.28;;;-6.43;78.46
14790;BME280;7486;51.010;10.366;2022-12-17T06:15:23;99042.72;;;-6.34;79.11
14790;BME280;7486;51.010;10.366;2022-12-17T06:17:56;99035.88;;;-6.35;77.82
14790;BME280;7486;51.010;10.366;2022-12-17T06:20:23;99000.06;;;-6.57;79.05
14790;BME280;7486;51.010;10.366;2022-12-17T06:23:08;99040.69;;;-6.44;79.09
14790;BME280;7486;51.010;10.366;2022-12-17T06:25:35;99044.38;;;-6.83;79.24
14790;BME280;7486;51.010;10.366;2022-12-17T06:28:02;99038.44;;;-6.68;79.80
14790;BME280;7486;51.010;10.366;2022-12-17T06:30:30;99038.19;;;-6.46;79.39
14790;BME280;7486;51.010;10.366;2022-12-17T06:33:08;99061.00;;;-6.38;79.11
14790;BME280;7486;51.010;10.366;2022-12-17T06:35:34;98999.66;;;-6.65;78.93
14790;BME280;7486;51.010;10.366;2022-12-17T06:38:04;99062.97;;;-6.61;79.46
14790;BME280;7486;51.010;10.366;2022-12-17T06:40:32;99062.09;;;-6.60;79.65
14790;BME280;7486;51.010;10.366;2022-12-17T06:42:58;99050.09;;;-6.61;79.50
14790;BME280;7486;51.010;10.366;2022-12-17T06:45:25;99068.38;;;-6.48;79.06
14790;BME280;7486;51.010;10.366;2022-12-17T06:47:59;99070.28;;;-6.69;79.00
14790;BME280;7486;51.010;10.366;2022-12-17T06:50:26;99079.38;;;-6.62;79.62
14790;BME280;7486;51.010;10.366;2022-12-17T06:53:03;99079.22;;;-6.76;79.83
14790;BME280;7486;51.010;10.366;2022-12-17T06:55:32;99068.13;;;-6.61;79.93
14790;BME280;7486;51.010;10.366;2022-12-17T06:58:00;99084.00;;;-6.51;79.50
14790;BME280;7486;51.010;10.366;2022-12-17T07:00:27;99058.59;;;-6.59;78.94
14790;BME280;7486;51.010;10.366;2022-12-17T07:02:57;99093.31;;;-6.66;79.31
14790;BME280;7486;51.010;10.366;2022-12-17T07:05:24;99072.78;;;-6.84;79.42
14790;BME280;7486;51.010;10.366;2022-12-17T07:07:58;99079.53;;;-7.16;79.62
14790;BME280;7486;51.010;10.366;2022-12-17T07:10:26;99104.38;;;-6.98;79.73
14790;BME280;7486;51.010;10.366;2022-12-17T07:12:52;99107.59;;;-7.12;80.26
14790;BME280;7486;51.010;10.366;2022-12-17T07:15:19;99108.00;;;-6.85;80.33
14790;BME280;7486;51.010;10.366;2022-12-17T07:17:59;99110.31;;;-6.79;80.24
14790;BME280;7486;51.010;10.366;2022-12-17T07:20:26;99111.72;;;-6.56;79.93
14790;BME280;7486;51.010;10.366;2022-12-17T07:22:54;99072.59;;;-7.69;79.55
14790;BME280;7486;51.010;10.366;2022-12-17T07:25:25;99106.75;;;-7.65;80.28
14790;BME280;7486;51.010;10.366;2022-12-17T07:27:53;99070.94;;;-8.07;83.07
14790;BME280;7486;51.010;10.366;2022-12-17T07:30:20;99083.72;;;-7.87;82.75
14790;BME280;7486;51.010;10.366;2022-12-17T07:32:56;99138.41;;;-7.27;82.61
14790;BME280;7486;51.010;10.366;2022-12-17T07:35:23;99128.56;;;-7.19;82.37
14790;BME280;7486;51.010;10.366;2022-12-17T07:37:57;99140.47;;;-7.17;81.06
14790;BME280;7486;51.010;10.366;2022-12-17T07:40:24;99122.59;;;-7.20;81.33
14790;BME280;7486;51.010;10.366;2022-12-17T07:42:50;99111.63;;;-7.23;81.79
14790;BME280;7486;51.010;10.366;2022-12-17T07:45:17;99143.25;;;-6.85;81.09
14790;BME280;7486;51.010;10.366;2022-12-17T07:47:52;99140.56;;;-7.01;81.04
14790;BME280;7486;51.010;10.366;2022-12-17T07:50:18;99146.44;;;-6.80;80.96
14790;BME280;7486;51.010;10.366;2022-12-17T07:52:57;99149.78;;;-6.78;80.69
14790;BME280;7486;51.010;10.366;2022-12-17T07:55:24;99155.38;;;-7.23;79.41
14790;BME280;7486;51.010;10.366;2022-12-17T07:58:01;99158.75;;;-7.40;81.28
14790;BME280;7486;51.010;10.366;2022-12-17T08:00:28;99158.09;;;-7.45;81.57
14790;BME280;7486;51.010;10.366;2022-12-17T08:02:59;99176.06;;;-7.43;82.38
14790;BME280;7486;51.010;10.366;2022-12-17T08:05:26;99159.28;;;-7.33;82.38
14790;BME280;7486;51.010;10.366;2022-12-17T08:07:52;99182.38;;;-7.50;82.65
14790;BME280;7486;51.010;10.366;2022-12-17T08:10:19;99182.03;;;-7.43;82.01
14790;BME280;7486;51.010;10.366;2022-12-17T08:12:56;99180.50;;;-7.47;82.89
14790;BME280;7486;51.010;10.366;2022-12-17T08:15:23;99182.78;;;-7.60;82.53
14790;BME280;7486;51.010;10.366;2022-12-17T08:17:50;99186.72;;;-8.09;83.16
14790;BME280;7486;51.010;10.366;2022-12-17T08:20:17;99178.63;;;-8.01;83.99
14790;BME280;7486;51.010;10.366;2022-12-17T08:22:44;99191.06;;;-7.72;84.22
14790;BME280;7486;51.010;10.366;2022-12-17T08:25:10;99199.75;;;-7.56;84.10
14790;BME280;7486;51.010;10.366;2022-12-17T08:27:37;99207.06;;;-7.65;83.91
14790;BME280;7486;51.010;10.366;2022-12-17T08:30:05;99207.75;;;-7.62;84.88
14790;BME280;7486;51.010;10.366;2022-12-17T08:32:31;99203.44;;;-7.42;83.41
14790;BME280;7486;51.010;10.366;2022-12-17T08:34:58;99208.59;;;-7.42;83.29
14790;BME280;7486;51.010;10.366;2022-12-17T08:37:25;99209.53;;;-7.64;83.31
14790;BME280;7486;51.010;10.366;2022-12-17T08:39:52;99192.13;;;-7.57;83.19
14790;BME280;7486;51.010;10.366;2022-12-17T08:42:18;99207.63;;;-7.40;83.25
14790;BME280;7486;51.010;10.366;2022-12-17T08:44:45;99219.31;;;-7.14;83.60
14790;BME280;7486;51.010;10.366;2022-12-17T08:47:12;99230.16;;;-7.08;82.89
14790;BME280;7486;51.010;10.366;2022-12-17T08:49:38;99226.78;;;-6.91;82.14
14790;BME280;7486;51.010;10.366;2022-12-17T08:52:05;99227.88;;;-7.14;81.59
14790;BME280;7486;51.010;10.366;2022-12-17T08:54:32;99237.22;;;-6.94;82.24
14790;BME280;7486;51.010;10.366;2022-12-17T08:56:59;99206.28;;;-7.11;81.72
14790;BME280;7486;51.010;10.366;2022-12-17T08:59:26;99157.56;;;-7.51;81.74
14790;BME280;7486;51.010;10.366;2022-12-17T09:01:52;99231.03;;;-6.90;81.41
14790;BME280;7486;51.010;10.366;2022-12-17T09:04:19;99244.34;;;-6.99;81.21
14790;BME280;7486;51.010;10.366;2022-12-17T09:06:46;99241.00;;;-7.01;81.99
14790;BME280;7486;51.010;10.366;2022-12-17T09:09:13;99239.06;;;-7.33;81.19
14790;BME280;7486;51.010;10.366;2022-12-17T09:11:41;99245.13;;;-7.34;83.28
14790;BME280;7486;51.010;10.366;2022-12-17T09:14:08;99246.50;;;-7.27;82.17
14790;BME280;7486;51.010;10.366;2022-12-17T09:16:34;99245.09;;;-6.97;82.73
14790;BME280;7486;51.010;10.366;2022-12-17T09:19:01;99245.84;;;-6.76;82.80
14790;BME280;7486;51.010;10.366;2022-12-17T09:21:29;99236.47;;;-6.96;82.01
14790;BME280;7486;51.010;10.366;2022-12-17T09:23:56;99256.66;;;-6.87;82.45
14790;BME280;7486;51.010;10.366;2022-12-17T09:26:23;99256.31;;;-6.98;81.66
14790;BME280;7486;51.010;10.366;2022-12-17T09:28:50;99246.81;;;-7.33;82.13
14790;BME280;7486;51.010;10.366;2022-12-17T09:31:16;99249.25;;;-7.69;83.31
14790;BME280;7486;51.010;10.366;2022-12-17T09:33:43;99252.38;;;-7.81;83.58
14790;BME280;7486;51.010;10.366;2022-12-17T09:36:10;99228.13;;;-7.96;85.22
14790;BME280;7486;51.010;10.366;2022-12-17T09:38:37;99252.25;;;-7.60;85.30
14790;BME280;7486;51.010;10.366;2022-12-17T09:41:24;99263.97;;;-7.34;84.79
14790;BME280;7486;51.010;10.366;2022-12-17T09:44:07;99257.63;;;-7.08;84.58
14790;BME280;7486;51.010;10.366;2022-12-17T09:46:55;99258.28;;;-7.03;83.18
14790;BME280;7486;51.010;10.366;2022-12-17T09:49:27;99260.16;;;-7.07;83.59
14790;BME280;7486;51.010;10.366;2022-12-17T09:51:55;99255.75;;;-7.05;83.37
14790;BME280;7486;51.010;10.366;2022-12-17T09:54:30;99265.13;;;-6.85;82.69
14790;BME280;7486;51.010;10.366;2022-12-17T09:56:58;99255.75;;;-6.86;82.47
14790;BME280;7486;51.010;10.366;2022-12-17T09:59:27;99264.81;;;-6.96;81.62
14790;BME280;7486;51.010;10.366;2022-12-17T10:01:54;99265.84;;;-7.19;82.81
14790;BME280;7486;51.010;10.366;2022-12-17T10:04:37;99225.44;;;-7.54;83.33
14790;BME280;7486;51.010;10.366;2022-12-17T10:07:14;99264.66;;;-6.93;83.25
14790;BME280;7486;51.010;10.366;2022-12-17T10:09:43;99254.47;;;-6.77;82.86
14790;BME280;7486;51.010;10.366;2022-12-17T10:12:15;99267.00;;;-6.70;81.86
14790;BME280;7486;51.010;10.366;2022-12-17T10:14:42;99267.31;;;-6.59;81.44
14790;BME280;7486;51.010;10.366;2022-12-17T10:17:28;99268.47;;;-6.47;81.15
14790;BME280;7486;51.010;10.366;2022-12-17T10:19:55;99260.31;;;-6.74;80.98
14790;BME280;7486;51.010;10.366;2022-12-17T10:22:22;99276.63;;;-7.11;82.30
14790;BME280;7486;51.010;10.366;2022-12-17T10:24:49;99269.13;;;-7.15;82.83
14790;BME280;7486;51.010;10.366;2022-12-17T10:27:18;99254.63;;;-7.55;82.82
14790;BME280;7486;51.010;10.366;2022-12-17T10:29:45;99266.81;;;-7.79;84.42
14790;BME280;7486;51.010;10.366;2022-12-17T10:34:44;99268.97;;;-7.12;84.75
14790;BME280;7486;51.010;10.366;2022-12-17T10:37:18;99271.84;;;-6.99;84.22
14790;BME280;7486;51.010;10.366;2022-12-17T10:39:59;99270.16;;;-7.00;83.37
14790;BME280;7486;51.010;10.366;2022-12-17T10:42:37;99209.97;;;-7.35;83.46
14790;BME280;7486;51.010;10.366;2022-12-17T10:45:29;99279.94;;;-6.71;83.44
14790;BME280;7486;51.010;10.366;2022-12-17T10:47:56;99281.06;;;-6.77;83.12
14790;BME280;7486;51.010;10.366;2022-12-17T10:50:23;99264.88;;;-6.97;82.86
14790;BME280;7486;51.010;10.366;2022-12-17T10:52:50;99260.22;;;-6.89;83.17
14790;BME280;7486;51.010;10.366;2022-12-17T10:55:26;99283.28;;;-6.69;82.56
14790;BME280;7486;51.010;10.366;2022-12-17T10:57:53;99285.22;;;-6.56;81.57
14790;BME280;7486;51.010;10.366;2022-12-17T11:02:48;99283.53;;;-6.57;82.32
14790;BME280;7486;51.010;10.366;2022-12-17T11:05:25;99289.72;;;-6.42;81.39
14790;BME280;7486;51.010;10.366;2022-12-17T11:07:53;99232.13;;;-7.13;81.79
14790;BME280;7486;51.010;10.366;2022-12-17T11:10:26;99292.25;;;-6.59;81.43
14790;BME280;7486;51.010;10.366;2022-12-17T11:12:58;99294.25;;;-6.83;81.15
14790;BME280;7486;51.010;10.366;2022-12-17T11:17:57;99296.78;;;-7.58;83.17
14790;BME280;7486;51.010;10.366;2022-12-17T11:20:33;99302.88;;;-7.21;83.80
14790;BME280;7486;51.010;10.366;2022-12-17T11:23:13;99302.81;;;-7.20;83.72
14790;BME280;7486;51.010;10.366;2022-12-17T11:25:53;99306.00;;;-6.96;83.84
14790;BME280;7486;51.010;10.366;2022-12-17T11:28:27;99307.31;;;-7.25;83.31
14790;BME280;7486;51.010;10.366;2022-12-17T11:31:04;99304.94;;;-6.73;83.84
14790;BME280;7486;51.010;10.366;2022-12-17T11:33:43;99305.53;;;-6.49;82.60
14790;BME280;7486;51.010;10.366;2022-12-17T11:36:25;99301.53;;;-6.55;81.70
14790;BME280;7486;51.010;10.366;2022-12-17T11:39:14;99303.44;;;-6.41;81.29
14790;BME280;7486;51.010;10.366;2022-12-17T11:45:06;99304.84;;;-6.53;80.32
14790;BME280;7486;51.010;10.366;2022-12-17T11:47:46;99311.34;;;-6.27;80.65
14790;BME280;7486;51.010;10.366;2022-12-17T11:50:27;99254.28;;;-6.56;79.83
14790;BME280;7486;51.010;10.366;2022-12-17T11:53:09;99312.16;;;-6.44;79.72
14790;BME280;7486;51.010;10.366;2022-12-17T11:56:10;99311.03;;;-6.57;80.17
14790;BME280;7486;51.010;10.366;2022-12-17T11:58:44;99300.22;;;-6.46;80.56
14790;BME280;7486;51.010;10.366;2022-12-17T12:04:24;99303.84;;;-6.50;81.05
14790;BME280;7486;51.010;10.366;2022-12-17T12:09:58;99306.22;;;-6.10;79.89
14790;BME280;7486;51.010;10.366;2022-12-17T12:13:11;99311.88;;;-6.21;78.65
14790;BME280;7486;51.010;10.366;2022-12-17T12:16:05;99306.03;;;-6.60;79.38
14790;BME280;7486;51.010;10.366;2022-12-17T12:21:39;99288.59;;;-6.91;82.47
14790;BME280;7486;51.010;10.366;2022-12-17T12:35:43;99305.66;;;-7.07;86.19
14790;BME280;7486;51.010;10.366;2022-12-17T12:38:17;99288.59;;;-6.72;85.09
14790;BME280;7486;51.010;10.366;2022-12-17T12:40:53;99299.81;;;-6.37;83.85
14790;BME280;7486;51.010;10.366;2022-12-17T12:43:36;99301.00;;;-6.44;81.92
14790;BME280;7486;51.010;10.366;2022-12-17T12:46:36;99304.19;;;-6.94;82.38
14790;BME280;7486;51.010;10.366;2022-12-17T12:51:34;99308.66;;;-6.79;84.58
14790;BME280;7486;51.010;10.366;2022-12-17T12:56:48;99306.41;;;-7.05;83.89
14790;BME280;7486;51.010;10.366;2022-12-17T13:01:51;99321.31;;;-6.74;82.98
14790;BME280;7486;51.010;10.366;2022-12-17T13:04:34;99320.44;;;-6.37;82.23
14790;BME280;7486;51.010;10.366;2022-12-17T13:07:02;99297.41;;;-6.78;81.47
14790;BME280;7486;51.010;10.366;2022-12-17T13:09:37;99266.97;;;-7.06;81.89
14790;BME280;7486;51.010;10.366;2022-12-17T13:12:22;99314.09;;;-7.03;82.88
14790;BME280;7486;51.010;10.366;2022-12-17T13:17:39;99320.91;;;-6.84;81.56
14790;BME280;7486;51.010;10.366;2022-12-17T13:20:30;99325.28;;;-7.05;82.79
14790;BME280;7486;51.010;10.366;2022-12-17T13:25:36;99323.19;;;-6.78;83.10
14790;BME280;7486;51.010;10.366;2022-12-17T13:28:04;99328.44;;;-6.43;82.09
14790;BME280;7486;51.010;10.366;2022-12-17T13:30:36;99322.84;;;-6.89;82.76
14790;BME280;7486;51.010;10.366;2022-12-17T13:43:52;99334.97;;;-6.91;83.12
14790;BME280;7486;51.010;10.366;2022-12-17T13:46:26;99340.75;;;-6.31;83.27
14790;BME280;7486;51.010;10.366;2022-12-17T13:49:00;99342.53;;;-6.15;82.22
14790;BME280;7486;51.010;10.366;2022-12-17T13:51:30;99341.19;;;-5.87;80.71
14790;BME280;7486;51.010;10.366;2022-12-17T13:54:02;99339.72;;;-6.27;80.88
14790;BME280;7486;51.010;10.366;2022-12-17T13:56:33;99351.72;;;-6.64;80.49
14790;BME280;7486;51.010;10.366;2022-12-17T13:59:01;99338.94;;;-6.84;82.38
14790;BME280;7486;51.010;10.366;2022-12-17T14:01:48;99329.13;;;-6.76;82.22
14790;BME280;7486;51.010;10.366;2022-12-17T14:04:51;99343.31;;;-6.86;82.80
14790;BME280;7486;51.010;10.366;2022-12-17T14:07:19;99346.25;;;-6.93;82.66
14790;BME280;7486;51.010;10.366;2022-12-17T14:09:50;99344.22;;;-7.06;82.74
14790;BME280;7486;51.010;10.366;2022-12-17T14:12:19;99311.97;;;-6.77;82.89
14790;BME280;7486;51.010;10.366;2022-12-17T14:17:26;99351.81;;;-6.29;80.12
14790;BME280;7486;51.010;10.366;2022-12-17T14:20:15;99344.88;;;-6.46;80.00
14790;BME280;7486;51.010;10.366;2022-12-17T14:22:45;99330.25;;;-6.45;80.51